createdAt,value
2022-12-09T00:00:17.687Z,97522.00
2022-12-09T00:02:47.827Z,97524.00
2022-12-09T00:05:20.808Z,97510.00
2022-12-09T00:07:50.826Z,97519.00
2022-12-09T00:10:20.921Z,97520.00
2022-12-09T00:12:50.750Z,97512.00
2022-12-09T00:15:20.939Z,97518.00
2022-12-09T00:17:50.971Z,97510.00
2022-12-09T00:20:23.700Z,97516.00
2022-12-09T00:22:53.770Z,97518.00
2022-12-09T00:25:23.817Z,97518.00
2022-12-09T00:27:53.684Z,97503.00
2022-12-09T00:30:23.656Z,97505.00
2022-12-09T00:32:53.591Z,97500.00
2022-12-09T00:35:26.212Z,97505.00
2022-12-09T00:37:56.185Z,97499.00
2022-12-09T00:40:26.224Z,97500.00
2022-12-09T00:42:56.242Z,97504.00
2022-12-09T00:45:26.142Z,97495.00
2022-12-09T00:47:56.033Z,97512.00
2022-12-09T00:50:28.673Z,97522.00
2022-12-09T00:52:58.778Z,97505.00
2022-12-09T00:55:30.174Z,97517.00
2022-12-09T00:58:00.218Z,97522.00
2022-12-09T01:00:30.537Z,97515.00
2022-12-09T01:03:00.696Z,97501.00
2022-12-09T01:05:33.876Z,97524.00
2022-12-09T01:08:03.838Z,97526.00
2022-12-09T01:10:34.015Z,97528.00
2022-12-09T01:13:05.087Z,97522.00
2022-12-09T01:15:35.488Z,97502.00
2022-12-09T01:18:05.641Z,97510.00
2022-12-09T01:20:38.587Z,97490.00
2022-12-09T01:23:09.174Z,97516.00
2022-12-09T01:25:40.731Z,97505.00
2022-12-09T01:28:10.681Z,97518.00
2022-12-09T01:30:40.679Z,97510.00
2022-12-09T01:33:10.623Z,97510.00
2022-12-09T01:35:45.497Z,97504.00
2022-12-09T01:38:15.411Z,97501.00
2022-12-09T01:40:48.461Z,97512.00
2022-12-09T01:43:20.794Z,97510.00
2022-12-09T01:45:50.857Z,97519.00
2022-12-09T01:48:22.518Z,97516.00
2022-12-09T01:50:57.755Z,97525.00
2022-12-09T01:53:30.479Z,97530.00
2022-12-09T01:56:03.316Z,97540.00
2022-12-09T01:58:34.666Z,97553.00
2022-12-09T02:01:04.724Z,97538.00
2022-12-09T02:03:34.895Z,97538.00
2022-12-09T02:06:08.591Z,97531.00
2022-12-09T02:08:38.742Z,97536.00
2022-12-09T02:11:13.761Z,97528.00
2022-12-09T02:13:53.697Z,97531.00
2022-12-09T02:16:26.890Z,97532.00
2022-12-09T02:19:01.162Z,97526.00
2022-12-09T02:21:38.828Z,97530.00
2022-12-09T02:24:15.906Z,97541.00
2022-12-09T02:26:51.269Z,97541.00
2022-12-09T02:29:59.647Z,97535.00
2022-12-09T02:32:56.018Z,97540.00
2022-12-09T02:35:30.700Z,97536.00
2022-12-09T02:38:03.613Z,97540.00
2022-12-09T02:40:37.960Z,97549.00
2022-12-09T02:43:09.532Z,97553.00
2022-12-09T02:45:40.861Z,97554.00
2022-12-09T02:48:12.797Z,97548.00
2022-12-09T02:50:46.236Z,97543.00
2022-12-09T02:53:17.902Z,97547.00
2022-12-09T02:55:50.457Z,97539.00
2022-12-09T02:58:20.773Z,97535.00
2022-12-09T03:00:52.294Z,97543.00
2022-12-09T03:03:22.584Z,97540.00
2022-12-09T03:06:00.189Z,97533.00
2022-12-09T03:08:35.014Z,97531.00
2022-12-09T03:11:08.330Z,97529.00
2022-12-09T03:13:47.475Z,97528.00
2022-12-09T03:16:23.427Z,97527.00
2022-12-09T03:18:58.874Z,97517.00
2022-12-09T03:21:32.913Z,97525.00
2022-12-09T03:24:03.880Z,97515.00
2022-12-09T03:26:35.778Z,97509.00
2022-12-09T03:29:09.844Z,97514.00
2022-12-09T03:31:40.450Z,97502.00
2022-12-09T03:34:11.527Z,97510.00
2022-12-09T03:36:45.389Z,97509.00
2022-12-09T03:39:18.614Z,97493.00
2022-12-09T03:41:50.979Z,97520.00
2022-12-09T03:44:23.869Z,97513.00
2022-12-09T03:46:54.203Z,97516.00
2022-12-09T03:49:24.300Z,97523.00
2022-12-09T03:52:00.386Z,97514.00
2022-12-09T03:54:32.946Z,97524.00
2022-12-09T03:57:03.577Z,97526.00
2022-12-09T03:59:37.275Z,97528.00
2022-12-09T04:02:07.839Z,97535.00
2022-12-09T04:04:38.667Z,97534.00
2022-12-09T04:07:11.747Z,97531.00
2022-12-09T04:09:44.630Z,97526.00
2022-12-09T04:12:14.629Z,97527.00
2022-12-09T04:14:44.575Z,97528.00
2022-12-09T04:17:15.387Z,97524.00
2022-12-09T04:19:45.612Z,97516.00
2022-12-09T04:22:18.175Z,97528.00
2022-12-09T04:24:48.164Z,97519.00
2022-12-09T04:27:18.338Z,97529.00
2022-12-09T04:29:48.760Z,97532.00
2022-12-09T04:32:18.800Z,97527.00
2022-12-09T04:34:48.884Z,97522.00
2022-12-09T04:37:21.334Z,97523.00
2022-12-09T04:39:51.402Z,97518.00
2022-12-09T04:42:21.301Z,97520.00
2022-12-09T04:44:51.421Z,97524.00
2022-12-09T04:47:21.587Z,97531.00
2022-12-09T04:49:51.947Z,97537.00
2022-12-09T04:52:24.708Z,97537.00
2022-12-09T04:54:54.737Z,97529.00
2022-12-09T04:57:24.834Z,97535.00
2022-12-09T04:59:55.022Z,97525.00
2022-12-09T05:02:26.038Z,97510.00
2022-12-09T05:04:56.307Z,97525.00
2022-12-09T05:07:29.735Z,97535.00
2022-12-09T05:10:00.918Z,97529.00
2022-12-09T05:12:31.809Z,97534.00
2022-12-09T05:15:02.050Z,97539.00
2022-12-09T05:17:31.968Z,97531.00
2022-12-09T05:20:02.661Z,97537.00
2022-12-09T05:22:35.280Z,97534.00
2022-12-09T05:25:05.687Z,97531.00
2022-12-09T05:27:35.627Z,97537.00
2022-12-09T05:30:06.191Z,97528.00
2022-12-09T05:32:36.561Z,97530.00
2022-12-09T05:35:07.517Z,97525.00
2022-12-09T05:37:40.621Z,97523.00
2022-12-09T05:40:12.565Z,97520.00
2022-12-09T05:42:42.972Z,97529.00
2022-12-09T05:45:14.350Z,97519.00
2022-12-09T05:47:45.043Z,97521.00
2022-12-09T05:50:16.511Z,97520.00
2022-12-09T05:52:49.516Z,97501.00
2022-12-09T05:55:19.703Z,97520.00
2022-12-09T05:57:49.895Z,97505.00
2022-12-09T06:00:20.468Z,97501.00
2022-12-09T06:02:50.464Z,97512.00
2022-12-09T06:05:21.239Z,97503.00
2022-12-09T06:07:54.692Z,97498.00
2022-12-09T06:10:25.021Z,97502.00
2022-12-09T06:12:57.802Z,97497.00
2022-12-09T06:15:33.146Z,97495.00
2022-12-09T06:18:04.790Z,97486.00
2022-12-09T06:20:34.930Z,97495.00
2022-12-09T06:23:07.927Z,97495.00
2022-12-09T06:25:38.193Z,97489.00
2022-12-09T06:28:08.679Z,97492.00
2022-12-09T06:30:39.583Z,97493.00
2022-12-09T06:33:29.472Z,97497.00
2022-12-09T06:36:04.733Z,97492.00
2022-12-09T06:38:37.623Z,97493.00
2022-12-09T06:41:11.712Z,97501.00
2022-12-09T06:43:42.619Z,97479.00
2022-12-09T06:46:16.246Z,97498.00
2022-12-09T06:48:46.498Z,97495.00
2022-12-09T06:51:17.052Z,97493.00
2022-12-09T06:53:50.118Z,97498.00
2022-12-09T06:56:20.301Z,97500.00
2022-12-09T06:58:50.691Z,97502.00
2022-12-09T07:01:22.654Z,97498.00
2022-12-09T07:03:56.923Z,97486.00
2022-12-09T07:06:31.080Z,97501.00
2022-12-09T07:09:06.569Z,97496.00
2022-12-09T07:11:36.941Z,97504.00
2022-12-09T07:14:07.589Z,97502.00
2022-12-09T07:16:38.333Z,97496.00
2022-12-09T07:19:09.640Z,97512.00
2022-12-09T07:21:39.970Z,97504.00
2022-12-09T07:24:13.485Z,97497.00
2022-12-09T07:26:43.556Z,97514.00
2022-12-09T07:29:13.563Z,97502.00
2022-12-09T07:31:43.796Z,97505.00
2022-12-09T07:34:14.466Z,97501.00
2022-12-09T07:36:44.719Z,97509.00
2022-12-09T07:39:19.266Z,97501.00
2022-12-09T07:41:50.368Z,97516.00
2022-12-09T07:44:20.529Z,97518.00
2022-12-09T07:46:50.738Z,97512.00
2022-12-09T07:49:20.941Z,97517.00
2022-12-09T07:51:51.463Z,97516.00
2022-12-09T07:54:24.591Z,97518.00
2022-12-09T07:56:54.754Z,97516.00
2022-12-09T07:59:24.854Z,97528.00
2022-12-09T08:01:54.936Z,97520.00
2022-12-09T08:04:25.440Z,97518.00
2022-12-09T08:06:56.054Z,97512.00
2022-12-09T08:09:29.320Z,97517.00
2022-12-09T08:11:59.668Z,97510.00
2022-12-09T08:14:30.310Z,97512.00
2022-12-09T08:17:00.594Z,97521.00
2022-12-09T08:19:31.330Z,97527.00
2022-12-09T08:22:01.679Z,97524.00
2022-12-09T08:24:34.332Z,97527.00
2022-12-09T08:27:05.143Z,97514.00
2022-12-09T08:29:35.218Z,97516.00
2022-12-09T08:32:06.229Z,97510.00
2022-12-09T08:34:36.539Z,97503.00
2022-12-09T08:37:06.822Z,97509.00
2022-12-09T08:39:39.387Z,97503.00
2022-12-09T08:42:09.739Z,97511.00
2022-12-09T08:44:40.897Z,97524.00
2022-12-09T08:47:11.594Z,97516.00
2022-12-09T08:49:41.928Z,97512.00
2022-12-09T08:52:12.197Z,97516.00
2022-12-09T08:54:44.987Z,97515.00
2022-12-09T08:57:15.495Z,97516.00
2022-12-09T08:59:46.021Z,97515.00
2022-12-09T09:02:16.432Z,97515.00
2022-12-09T09:04:46.565Z,97499.00
2022-12-09T09:07:17.696Z,97515.00
2022-12-09T09:09:50.506Z,97499.00
2022-12-09T09:12:20.880Z,97491.00
2022-12-09T09:14:53.448Z,97511.00
2022-12-09T09:17:23.765Z,97498.00
2022-12-09T09:19:54.230Z,97492.00
2022-12-09T09:22:24.336Z,97499.00
2022-12-09T09:24:57.556Z,97499.00
2022-12-09T09:27:27.710Z,97490.00
2022-12-09T09:29:57.663Z,97503.00
2022-12-09T09:32:28.017Z,97493.00
2022-12-09T09:34:58.533Z,97503.00
2022-12-09T09:37:28.536Z,97501.00
2022-12-09T09:40:01.156Z,97513.00
2022-12-09T09:42:37.156Z,97494.00
2022-12-09T09:45:11.253Z,97502.00
2022-12-09T09:47:44.948Z,97509.00
2022-12-09T09:50:26.245Z,97505.00
2022-12-09T09:52:58.340Z,97513.00
2022-12-09T09:55:40.780Z,97518.00
2022-12-09T09:58:17.035Z,97511.00
2022-12-09T10:00:52.574Z,97499.00
2022-12-09T10:03:30.362Z,97492.00
2022-12-09T10:06:07.155Z,97494.00
2022-12-09T10:08:44.473Z,97469.00
2022-12-09T10:11:21.133Z,97482.00
2022-12-09T10:13:57.910Z,97479.00
2022-12-09T10:16:32.832Z,97489.00
2022-12-09T10:19:09.297Z,97481.00
2022-12-09T10:21:43.594Z,97470.00
2022-12-09T10:24:31.854Z,97479.00
2022-12-09T10:27:14.631Z,97473.00
2022-12-09T10:29:52.220Z,97466.00
2022-12-09T10:32:23.928Z,97457.00
2022-12-09T10:34:54.198Z,97461.00
2022-12-09T10:37:30.825Z,97461.00
2022-12-09T10:40:06.481Z,97464.00
2022-12-09T10:43:00.095Z,97443.00
2022-12-09T10:45:52.529Z,97436.00
2022-12-09T10:48:27.901Z,97440.00
2022-12-09T10:51:03.034Z,97437.00
2022-12-09T10:53:33.983Z,97444.00
2022-12-09T10:56:04.984Z,97452.00
2022-12-09T10:58:38.025Z,97434.00
2022-12-09T11:01:11.428Z,97420.00
2022-12-09T11:03:44.163Z,97418.00
2022-12-09T11:06:30.422Z,97414.00
2022-12-09T11:09:03.204Z,97418.00
2022-12-09T11:11:44.608Z,97411.00
2022-12-09T11:14:25.737Z,97406.00
2022-12-09T11:16:57.266Z,97400.00
2022-12-09T11:19:35.261Z,97391.00
2022-12-09T11:22:25.042Z,97393.00
2022-12-09T11:24:57.541Z,97395.00
2022-12-09T11:27:30.987Z,97399.00
2022-12-09T11:30:17.769Z,97394.00
2022-12-09T11:33:04.521Z,97389.00
2022-12-09T11:35:40.010Z,97386.00
2022-12-09T11:38:41.200Z,97399.00
2022-12-09T11:41:34.488Z,97402.00
2022-12-09T11:44:04.399Z,97392.00
2022-12-09T11:46:36.932Z,97386.00
2022-12-09T11:49:09.302Z,97381.00
2022-12-09T11:51:41.143Z,97379.00
2022-12-09T11:54:14.553Z,97369.00
2022-12-09T11:56:44.759Z,97370.00
2022-12-09T11:59:18.057Z,97377.00
2022-12-09T12:01:55.113Z,97375.00
2022-12-09T12:04:29.423Z,97361.00
2022-12-09T12:07:04.047Z,97371.00
2022-12-09T12:09:39.040Z,97381.00
2022-12-09T12:12:26.139Z,97372.00
2022-12-09T12:14:56.833Z,97385.00
2022-12-09T12:17:36.793Z,97386.00
2022-12-09T12:20:08.229Z,97374.00
2022-12-09T12:22:57.434Z,97371.00
2022-12-09T12:25:35.040Z,97363.00
2022-12-09T12:28:23.403Z,97365.00
2022-12-09T12:30:59.199Z,97365.00
2022-12-09T12:36:43.631Z,97350.00
2022-12-09T12:39:17.382Z,97353.00
2022-12-09T12:41:52.253Z,97360.00
2022-12-09T12:44:49.807Z,97363.00
2022-12-09T12:47:25.440Z,97353.00
2022-12-09T12:50:23.710Z,97358.00
2022-12-09T12:53:00.814Z,97355.00
2022-12-09T12:55:50.943Z,97344.00
2022-12-09T12:58:34.851Z,97354.00
2022-12-09T13:01:10.390Z,97353.00
2022-12-09T13:03:53.655Z,97352.00
2022-12-09T13:06:33.651Z,97362.00
2022-12-09T13:09:06.784Z,97341.00
2022-12-09T13:11:43.304Z,97349.00
2022-12-09T13:14:16.620Z,97360.00
2022-12-09T13:16:46.648Z,97365.00
2022-12-09T13:19:20.380Z,97366.00
2022-12-09T13:21:53.692Z,97364.00
2022-12-09T13:24:29.172Z,97354.00
2022-12-09T13:27:04.824Z,97346.00
2022-12-09T13:29:41.364Z,97349.00
2022-12-09T13:32:35.032Z,97337.00
2022-12-09T13:35:08.962Z,97348.00
2022-12-09T13:38:02.456Z,97335.00
2022-12-09T13:40:36.789Z,97331.00
2022-12-09T13:43:15.150Z,97302.00
2022-12-09T13:45:57.193Z,97310.00
2022-12-09T13:48:52.893Z,97311.00
2022-12-09T13:51:23.771Z,97315.00
2022-12-09T13:54:04.028Z,97307.00
2022-12-09T13:56:36.196Z,97302.00
2022-12-09T13:59:27.274Z,97303.00
2022-12-09T14:01:59.425Z,97309.00
2022-12-09T14:04:31.259Z,97313.00
2022-12-09T14:07:10.309Z,97320.00
2022-12-09T14:09:50.092Z,97319.00
2022-12-09T14:13:10.647Z,97312.00
2022-12-09T14:15:42.261Z,97313.00
2022-12-09T14:18:32.729Z,97301.00
2022-12-09T14:21:30.892Z,97297.00
2022-12-09T14:24:30.817Z,97289.00
2022-12-09T14:27:15.238Z,97276.00
2022-12-09T14:29:57.337Z,97286.00
2022-12-09T14:32:31.816Z,97285.00
2022-12-09T14:35:19.634Z,97292.00
2022-12-09T14:37:59.031Z,97292.00
2022-12-09T14:40:55.704Z,97291.00
2022-12-09T14:43:39.676Z,97293.00
2022-12-09T14:46:22.229Z,97286.00
2022-12-09T14:48:57.050Z,97284.00
2022-12-09T14:51:29.516Z,97296.00
2022-12-09T14:54:01.976Z,97294.00
2022-12-09T14:56:33.325Z,97295.00
2022-12-09T14:59:08.523Z,97292.00
2022-12-09T15:01:56.314Z,97273.00
2022-12-09T15:04:37.533Z,97266.00
2022-12-09T15:07:15.946Z,97279.00
2022-12-09T15:09:54.144Z,97274.00
2022-12-09T15:12:27.469Z,97263.00
2022-12-09T15:15:03.373Z,97271.00
2022-12-09T15:17:36.161Z,97262.00
2022-12-09T15:20:07.199Z,97272.00
2022-12-09T15:22:37.507Z,97270.00
2022-12-09T15:25:07.987Z,97270.00
2022-12-09T15:27:38.155Z,97267.00
2022-12-09T15:30:25.049Z,97268.00
2022-12-09T15:32:55.028Z,97263.00
2022-12-09T15:35:27.056Z,97260.00
2022-12-09T15:37:58.960Z,97257.00
2022-12-09T15:40:30.915Z,97255.00
2022-12-09T15:43:04.158Z,97249.00
2022-12-09T15:45:38.880Z,97244.00
2022-12-09T15:48:14.973Z,97237.00
2022-12-09T15:50:49.072Z,97245.00
2022-12-09T15:53:23.267Z,97242.00
2022-12-09T15:55:55.714Z,97232.00
2022-12-09T15:58:30.311Z,97245.00
2022-12-09T16:01:04.002Z,97241.00
2022-12-09T16:03:36.502Z,97246.00
2022-12-09T16:06:09.644Z,97225.00
2022-12-09T16:08:41.283Z,97231.00
2022-12-09T16:11:11.203Z,97231.00
2022-12-09T16:13:59.958Z,97229.00
2022-12-09T16:16:37.104Z,97241.00
2022-12-09T16:19:06.993Z,97231.00
2022-12-09T16:21:38.929Z,97232.00
2022-12-09T16:24:12.726Z,97242.00
2022-12-09T16:26:47.957Z,97225.00
2022-12-09T16:29:21.667Z,97225.00
2022-12-09T16:32:16.406Z,97220.00
2022-12-09T16:34:48.371Z,97241.00
2022-12-09T16:37:32.054Z,97239.00
2022-12-09T16:40:02.711Z,97232.00
2022-12-09T16:42:39.336Z,97227.00
2022-12-09T16:45:25.662Z,97223.00
2022-12-09T16:47:59.904Z,97229.00
2022-12-09T16:50:32.767Z,97212.00
2022-12-09T16:53:03.094Z,97215.00
2022-12-09T16:55:34.343Z,97213.00
2022-12-09T16:58:04.219Z,97201.00
2022-12-09T17:00:34.043Z,97206.00
2022-12-09T17:03:10.206Z,97190.00
2022-12-09T17:05:43.393Z,97205.00
2022-12-09T17:08:17.480Z,97194.00
2022-12-09T17:10:47.603Z,97198.00
2022-12-09T17:13:17.530Z,97203.00
2022-12-09T17:15:47.388Z,97206.00
2022-12-09T17:18:20.152Z,97201.00
2022-12-09T17:20:50.064Z,97212.00
2022-12-09T17:23:20.004Z,97214.00
2022-12-09T17:25:58.843Z,97208.00
2022-12-09T17:28:30.256Z,97217.00
2022-12-09T17:31:00.401Z,97218.00
2022-12-09T17:33:33.095Z,97214.00
2022-12-09T17:36:02.940Z,97216.00
2022-12-09T17:38:32.875Z,97212.00
2022-12-09T17:41:06.664Z,97203.00
2022-12-09T17:43:37.396Z,97209.00
2022-12-09T17:46:08.909Z,97202.00
2022-12-09T17:48:42.169Z,97205.00
2022-12-09T17:51:14.685Z,97198.00
2022-12-09T17:53:45.715Z,97188.00
2022-12-09T17:56:17.032Z,97182.00
2022-12-09T17:58:47.292Z,97199.00
2022-12-09T18:01:18.604Z,97200.00
2022-12-09T18:03:56.387Z,97183.00
2022-12-09T18:06:26.755Z,97200.00
2022-12-09T18:08:56.903Z,97188.00
2022-12-09T18:11:26.856Z,97197.00
2022-12-09T18:13:56.942Z,97192.00
2022-12-09T18:16:26.850Z,97194.00
2022-12-09T18:18:59.445Z,97193.00
2022-12-09T18:21:29.778Z,97193.00
2022-12-09T18:23:59.626Z,97198.00
2022-12-09T18:26:32.140Z,97205.00
2022-12-09T18:29:05.246Z,97199.00
2022-12-09T18:31:35.256Z,97196.00
2022-12-09T18:34:07.918Z,97189.00
2022-12-09T18:36:37.973Z,97199.00
2022-12-09T18:39:08.356Z,97213.00
2022-12-09T18:41:38.475Z,97204.00
2022-12-09T18:44:09.664Z,97207.00
2022-12-09T18:46:41.916Z,97213.00
2022-12-09T18:49:16.310Z,97209.00
2022-12-09T18:51:47.758Z,97221.00
2022-12-09T18:54:19.068Z,97213.00
2022-12-09T18:56:49.079Z,97212.00
2022-12-09T18:59:19.455Z,97208.00
2022-12-09T19:01:50.763Z,97208.00
2022-12-09T19:04:25.519Z,97203.00
2022-12-09T19:07:00.094Z,97209.00
2022-12-09T19:09:33.636Z,97212.00
2022-12-09T19:12:37.866Z,97207.00
2022-12-09T19:14:54.909Z,97202.00
2022-12-09T19:17:24.884Z,97200.00
2022-12-09T19:19:57.339Z,97198.00
2022-12-09T19:22:27.232Z,97196.00
2022-12-09T19:24:57.101Z,97196.00
2022-12-09T19:27:27.007Z,97194.00
2022-12-09T19:29:56.984Z,97194.00
2022-12-09T19:32:52.083Z,97184.00
2022-12-09T19:35:19.574Z,97185.00
2022-12-09T19:37:49.388Z,97189.00
2022-12-09T19:40:19.410Z,97184.00
2022-12-09T19:42:49.322Z,97194.00
2022-12-09T19:45:19.280Z,97197.00
2022-12-09T19:47:49.572Z,97189.00
2022-12-09T19:50:22.659Z,97183.00
2022-12-09T19:52:52.646Z,97183.00
2022-12-09T19:55:22.496Z,97198.00
2022-12-09T19:57:52.438Z,97186.00
2022-12-09T20:00:22.576Z,97189.00
2022-12-09T20:02:52.549Z,97177.00
2022-12-09T20:05:25.065Z,97181.00
2022-12-09T20:07:54.950Z,97176.00
2022-12-09T20:10:25.004Z,97187.00
2022-12-09T20:12:54.863Z,97171.00
2022-12-09T20:15:24.825Z,97177.00
2022-12-09T20:17:54.664Z,97162.00
2022-12-09T20:20:27.141Z,97161.00
2022-12-09T20:22:57.012Z,97179.00
2022-12-09T20:25:26.862Z,97178.00
2022-12-09T20:27:56.955Z,97172.00
2022-12-09T20:30:26.955Z,97173.00
2022-12-09T20:32:56.951Z,97183.00
2022-12-09T20:35:29.399Z,97181.00
2022-12-09T20:37:59.340Z,97186.00
2022-12-09T20:40:29.271Z,97183.00
2022-12-09T20:42:59.111Z,97174.00
2022-12-09T20:45:28.982Z,97185.00
2022-12-09T20:47:59.041Z,97202.00
2022-12-09T20:50:38.240Z,97191.00
2022-12-09T20:53:08.619Z,97194.00
2022-12-09T20:55:38.445Z,97190.00
2022-12-09T20:58:11.247Z,97185.00
2022-12-09T21:00:41.121Z,97189.00
2022-12-09T21:03:11.013Z,97189.00
2022-12-09T21:05:43.574Z,97186.00
2022-12-09T21:08:13.620Z,97191.00
2022-12-09T21:10:43.472Z,97186.00
2022-12-09T21:13:13.341Z,97183.00
2022-12-09T21:15:43.516Z,97179.00
2022-12-09T21:18:13.394Z,97179.00
2022-12-09T21:20:45.904Z,97186.00
2022-12-09T21:23:33.487Z,97180.00
2022-12-09T21:26:07.652Z,97183.00
2022-12-09T21:28:37.962Z,97192.00
2022-12-09T21:31:11.765Z,97186.00
2022-12-09T21:33:42.626Z,97202.00
2022-12-09T21:36:16.897Z,97193.00
2022-12-09T21:38:47.327Z,97202.00
2022-12-09T21:41:18.910Z,97200.00
2022-12-09T21:43:49.039Z,97204.00
2022-12-09T21:46:20.862Z,97207.00
2022-12-09T21:48:54.247Z,97212.00
2022-12-09T21:51:28.999Z,97209.00
2022-12-09T21:53:58.931Z,97212.00
2022-12-09T21:56:30.438Z,97197.00
2022-12-09T21:59:01.615Z,97210.00
2022-12-09T22:01:33.350Z,97205.00
2022-12-09T22:04:05.036Z,97212.00
2022-12-09T22:06:37.889Z,97206.00
2022-12-09T22:09:09.066Z,97202.00
2022-12-09T22:11:40.285Z,97200.00
2022-12-09T22:14:11.680Z,97196.00
2022-12-09T22:16:43.991Z,97194.00
2022-12-09T22:19:17.841Z,97189.00
2022-12-09T22:21:51.159Z,97182.00
2022-12-09T22:24:21.511Z,97189.00
2022-12-09T22:26:51.433Z,97189.00
2022-12-09T22:29:21.347Z,97185.00
2022-12-09T22:31:51.331Z,97173.00
2022-12-09T22:34:22.771Z,97189.00
2022-12-09T22:36:57.037Z,97186.00
2022-12-09T22:39:27.582Z,97187.00
2022-12-09T22:41:57.583Z,97198.00
2022-12-09T22:44:27.422Z,97189.00
2022-12-09T22:46:57.281Z,97187.00
2022-12-09T22:49:27.380Z,97200.00
2022-12-09T22:52:00.744Z,97191.00
2022-12-09T22:54:30.927Z,97196.00
2022-12-09T22:57:00.765Z,97204.00
2022-12-09T22:59:30.648Z,97203.00
2022-12-09T23:02:00.730Z,97214.00
2022-12-09T23:04:30.721Z,97206.00
2022-12-09T23:07:03.254Z,97213.00
2022-12-09T23:09:33.172Z,97208.00
2022-12-09T23:12:03.034Z,97209.00
2022-12-09T23:14:32.960Z,97217.00
2022-12-09T23:17:02.883Z,97213.00
2022-12-09T23:19:32.917Z,97212.00
2022-12-09T23:22:05.407Z,97223.00
2022-12-09T23:24:35.315Z,97219.00
2022-12-09T23:27:05.120Z,97224.00
2022-12-09T23:29:34.988Z,97223.00
2022-12-09T23:32:04.845Z,97238.00
2022-12-09T23:34:34.760Z,97231.00
2022-12-09T23:37:07.216Z,97239.00
2022-12-09T23:39:37.177Z,97233.00
2022-12-09T23:42:07.125Z,97229.00
2022-12-09T23:44:37.028Z,97234.00
2022-12-09T23:47:06.998Z,97234.00
2022-12-09T23:49:36.862Z,97240.00
2022-12-09T23:52:09.824Z,97244.00
2022-12-09T23:54:39.869Z,97240.00
2022-12-09T23:57:09.702Z,97231.00
2022-12-09T23:59:39.927Z,97222.00
